Richmond, Ohio
Current Conditions -  °F | °C
As of 6:53 PM on Sunday 21 Dec 2014 (Local Time) from KHLG Reporting Station
Clear Clear  
Wind Chill: 23°   Ceiling: Unl
Heat Index: 30°   Visibility: 9mi
Dew Point: 21°   Wind: 7mph
Humidity: 69%   Direction: 60°ENE
Pressure: 30.21"   Gusts: NA
Location:  40.43°N, 80.77°W
Report Text: KHLG 212353Z AUTO 06006KT 9SM CLR M01/M06 A3021 RMK AO2 SLP247 T10111061 10022 21011 57004
Loading
Personal Weather Stations






























Interactive Weather Map New forecast layout! Learn more

10-Day Weather Forecast

Advertisements
Track Severe Weather on mobile